sensor_id;sensor_type;location;lat;lon;timestamp;pressure;altitude;pressure_sealevel;temperature;humidity
14204;BME280;7185;51.854;6.622;2023-08-01T00:00:38;99547.94;;;20.88;99.43
14204;BME280;7185;51.854;6.622;2023-08-01T00:03:10;99551.09;;;20.82;99.74
14204;BME280;7185;51.854;6.622;2023-08-01T00:05:44;99548.50;;;20.69;100.00
14204;BME280;7185;51.854;6.622;2023-08-01T00:08:36;99540.84;;;20.53;100.00
14204;BME280;7185;51.854;6.622;2023-08-01T00:11:20;99539.75;;;20.67;100.00
14204;BME280;7185;51.854;6.622;2023-08-01T00:13:52;99531.94;;;20.77;100.00
14204;BME280;7185;51.854;6.622;2023-08-01T00:16:40;99516.94;;;20.87;99.81
14204;BME280;7185;51.854;6.622;2023-08-01T00:19:13;99525.91;;;20.86;99.46
14204;BME280;7185;51.854;6.622;2023-08-01T00:21:51;99517.88;;;20.97;98.63
14204;BME280;7185;51.854;6.622;2023-08-01T00:24:29;99522.00;;;20.90;99.15
14204;BME280;7185;51.854;6.622;2023-08-01T00:27:03;99517.78;;;20.88;99.39
14204;BME280;7185;51.854;6.622;2023-08-01T00:29:45;99519.84;;;20.95;98.39
14204;BME280;7185;51.854;6.622;2023-08-01T00:32:19;99525.91;;;21.09;97.52
14204;BME280;7185;51.854;6.622;2023-08-01T00:34:55;99520.31;;;21.12;97.32
14204;BME280;7185;51.854;6.622;2023-08-01T00:37:50;99514.97;;;21.12;96.52
14204;BME280;7185;51.854;6.622;2023-08-01T00:40:22;99500.19;;;21.19;96.98
14204;BME280;7185;51.854;6.622;2023-08-01T00:42:55;99507.00;;;21.00;97.37
14204;BME280;7185;51.854;6.622;2023-08-01T00:45:45;99507.25;;;21.09;97.63
14204;BME280;7185;51.854;6.622;2023-08-01T00:48:25;99503.63;;;21.10;97.34
14204;BME280;7185;51.854;6.622;2023-08-01T00:54:14;99501.28;;;21.16;97.30
14204;BME280;7185;51.854;6.622;2023-08-01T00:57:14;99495.22;;;21.26;97.08
14204;BME280;7185;51.854;6.622;2023-08-01T00:59:52;99483.72;;;21.14;97.02
14204;BME280;7185;51.854;6.622;2023-08-01T01:02:45;99484.22;;;21.08;96.80
14204;BME280;7185;51.854;6.622;2023-08-01T01:08:28;99477.22;;;20.95;98.07
14204;BME280;7185;51.854;6.622;2023-08-01T01:11:15;99477.94;;;20.97;97.71
14204;BME280;7185;51.854;6.622;2023-08-01T01:13:47;99471.28;;;21.14;97.13
14204;BME280;7185;51.854;6.622;2023-08-01T01:16:22;99476.69;;;21.13;97.17
14204;BME280;7185;51.854;6.622;2023-08-01T01:18:55;99465.53;;;21.30;96.28
14204;BME280;7185;51.854;6.622;2023-08-01T01:21:29;99464.84;;;21.17;95.88
14204;BME280;7185;51.854;6.622;2023-08-01T01:24:02;99467.41;;;20.73;98.08
14204;BME280;7185;51.854;6.622;2023-08-01T01:26:37;99465.56;;;21.08;96.72
14204;BME280;7185;51.854;6.622;2023-08-01T01:29:30;99455.41;;;21.01;97.31
14204;BME280;7185;51.854;6.622;2023-08-01T01:32:03;99446.69;;;20.99;96.75
14204;BME280;7185;51.854;6.622;2023-08-01T01:35:22;99437.31;;;21.16;95.86
14204;BME280;7185;51.854;6.622;2023-08-01T01:38:27;99434.69;;;21.05;95.57
14204;BME280;7185;51.854;6.622;2023-08-01T01:41:06;99439.25;;;21.26;94.85
14204;BME280;7185;51.854;6.622;2023-08-01T01:43:45;99449.09;;;21.14;94.78
14204;BME280;7185;51.854;6.622;2023-08-01T01:46:24;99444.50;;;21.05;95.18
14204;BME280;7185;51.854;6.622;2023-08-01T01:49:20;99442.66;;;21.16;94.49
14204;BME280;7185;51.854;6.622;2023-08-01T01:52:17;99446.44;;;21.02;95.60
14204;BME280;7185;51.854;6.622;2023-08-01T01:55:25;99448.47;;;21.10;94.07
14204;BME280;7185;51.854;6.622;2023-08-01T01:57:57;99438.56;;;21.01;94.53
14204;BME280;7185;51.854;6.622;2023-08-01T02:00:29;99448.28;;;20.91;95.07
14204;BME280;7185;51.854;6.622;2023-08-01T02:03:16;99446.94;;;20.96;94.90
14204;BME280;7185;51.854;6.622;2023-08-01T02:09:39;99437.13;;;20.97;93.87
14204;BME280;7185;51.854;6.622;2023-08-01T02:12:37;99432.63;;;20.97;93.21
14204;BME280;7185;51.854;6.622;2023-08-01T02:15:51;99429.25;;;20.95;93.81
14204;BME280;7185;51.854;6.622;2023-08-01T02:18:43;99437.25;;;20.61;95.22
14204;BME280;7185;51.854;6.622;2023-08-01T02:21:54;99428.78;;;20.67;95.14
14204;BME280;7185;51.854;6.622;2023-08-01T02:24:38;99425.84;;;20.70;93.87
14204;BME280;7185;51.854;6.622;2023-08-01T02:27:49;99429.28;;;20.73;93.76
14204;BME280;7185;51.854;6.622;2023-08-01T02:30:29;99433.00;;;20.59;94.40
14204;BME280;7185;51.854;6.622;2023-08-01T02:33:19;99436.53;;;20.59;94.89
14204;BME280;7185;51.854;6.622;2023-08-01T02:36:03;99444.25;;;20.40;95.98
14204;BME280;7185;51.854;6.622;2023-08-01T02:38:36;99440.16;;;20.47;95.27
14204;BME280;7185;51.854;6.622;2023-08-01T02:41:18;99443.78;;;20.68;93.43
14204;BME280;7185;51.854;6.622;2023-08-01T02:44:24;99448.34;;;20.55;94.72
14204;BME280;7185;51.854;6.622;2023-08-01T02:47:10;99439.28;;;20.46;94.49
14204;BME280;7185;51.854;6.622;2023-08-01T02:49:48;99437.47;;;20.58;93.90
14204;BME280;7185;51.854;6.622;2023-08-01T02:52:27;99441.81;;;20.48;94.32
14204;BME280;7185;51.854;6.622;2023-08-01T02:55:03;99440.47;;;20.19;94.99
14204;BME280;7185;51.854;6.622;2023-08-01T02:57:39;99439.16;;;20.48;93.84
14204;BME280;7185;51.854;6.622;2023-08-01T03:00:22;99444.47;;;20.48;92.70
14204;BME280;7185;51.854;6.622;2023-08-01T03:03:02;99448.72;;;20.39;93.59
14204;BME280;7185;51.854;6.622;2023-08-01T03:05:43;99441.81;;;20.25;93.71
14204;BME280;7185;51.854;6.622;2023-08-01T03:08:31;99445.47;;;20.47;92.83
14204;BME280;7185;51.854;6.622;2023-08-01T03:11:28;99457.31;;;20.31;92.76
14204;BME280;7185;51.854;6.622;2023-08-01T03:14:00;99449.53;;;20.17;93.07
14204;BME280;7185;51.854;6.622;2023-08-01T03:16:34;99452.19;;;20.17;87.62
14204;BME280;7185;51.854;6.622;2023-08-01T03:19:06;99452.47;;;20.25;88.09
14204;BME280;7185;51.854;6.622;2023-08-01T03:21:44;99447.22;;;20.12;87.69
14204;BME280;7185;51.854;6.622;2023-08-01T03:24:21;99453.16;;;20.16;88.14
14204;BME280;7185;51.854;6.622;2023-08-01T03:27:04;99455.34;;;20.22;86.72
14204;BME280;7185;51.854;6.622;2023-08-01T03:29:46;99451.84;;;20.21;86.69
14204;BME280;7185;51.854;6.622;2023-08-01T03:32:25;99452.81;;;20.20;86.27
14204;BME280;7185;51.854;6.622;2023-08-01T03:35:08;99461.88;;;20.18;86.96
14204;BME280;7185;51.854;6.622;2023-08-01T03:37:44;99464.97;;;20.00;86.80
14204;BME280;7185;51.854;6.622;2023-08-01T03:44:01;99452.63;;;19.99;86.38
14204;BME280;7185;51.854;6.622;2023-08-01T03:47:06;99450.22;;;19.96;87.02
14204;BME280;7185;51.854;6.622;2023-08-01T03:49:43;99447.78;;;19.93;86.65
14204;BME280;7185;51.854;6.622;2023-08-01T03:52:37;99449.25;;;19.97;86.96
14204;BME280;7185;51.854;6.622;2023-08-01T03:55:12;99448.78;;;20.03;86.37
14204;BME280;7185;51.854;6.622;2023-08-01T03:57:55;99452.31;;;19.80;87.89
14204;BME280;7185;51.854;6.622;2023-08-01T04:00:42;99461.41;;;19.88;87.79
14204;BME280;7185;51.854;6.622;2023-08-01T04:03:34;99455.41;;;19.98;87.45
14204;BME280;7185;51.854;6.622;2023-08-01T04:06:12;99456.34;;;19.85;87.65
14204;BME280;7185;51.854;6.622;2023-08-01T04:09:07;99460.81;;;19.85;88.54
14204;BME280;7185;51.854;6.622;2023-08-01T04:11:39;99456.78;;;20.03;87.53
14204;BME280;7185;51.854;6.622;2023-08-01T04:14:14;99459.91;;;19.97;88.05
14204;BME280;7185;51.854;6.622;2023-08-01T04:16:52;99464.75;;;20.03;88.49
14204;BME280;7185;51.854;6.622;2023-08-01T04:19:28;99474.66;;;20.01;88.01
14204;BME280;7185;51.854;6.622;2023-08-01T04:22:13;99467.50;;;20.02;88.83
14204;BME280;7185;51.854;6.622;2023-08-01T04:25:20;99472.47;;;19.95;89.28
14204;BME280;7185;51.854;6.622;2023-08-01T04:28:01;99477.53;;;19.98;88.80
14204;BME280;7185;51.854;6.622;2023-08-01T04:30:49;99472.53;;;20.18;87.79
14204;BME280;7185;51.854;6.622;2023-08-01T04:33:21;99474.88;;;19.98;88.93
14204;BME280;7185;51.854;6.622;2023-08-01T04:36:03;99474.44;;;20.16;88.30
14204;BME280;7185;51.854;6.622;2023-08-01T04:38:47;99473.50;;;20.17;87.84
14204;BME280;7185;51.854;6.622;2023-08-01T04:41:23;99472.91;;;20.25;87.29
14204;BME280;7185;51.854;6.622;2023-08-01T04:44:19;99474.97;;;20.32;87.15
14204;BME280;7185;51.854;6.622;2023-08-01T04:47:10;99481.09;;;20.10;87.84
14204;BME280;7185;51.854;6.622;2023-08-01T04:49:59;99484.19;;;20.51;86.81
14204;BME280;7185;51.854;6.622;2023-08-01T04:52:31;99477.44;;;20.47;86.56
14204;BME280;7185;51.854;6.622;2023-08-01T04:55:31;99482.22;;;20.30;86.94
14204;BME280;7185;51.854;6.622;2023-08-01T04:58:09;99482.63;;;20.01;88.76
14204;BME280;7185;51.854;6.622;2023-08-01T05:01:06;99480.31;;;20.32;86.88
14204;BME280;7185;51.854;6.622;2023-08-01T05:04:09;99484.41;;;20.48;85.97
14204;BME280;7185;51.854;6.622;2023-08-01T05:09:51;99487.81;;;20.38;86.12
14204;BME280;7185;51.854;6.622;2023-08-01T05:12:40;99498.94;;;20.32;86.67
14204;BME280;7185;51.854;6.622;2023-08-01T05:15:44;99488.63;;;20.28;86.86
14204;BME280;7185;51.854;6.622;2023-08-01T05:18:39;99481.75;;;20.25;86.76
14204;BME280;7185;51.854;6.622;2023-08-01T05:21:11;99489.25;;;20.31;86.30
14204;BME280;7185;51.854;6.622;2023-08-01T05:23:49;99488.78;;;20.37;86.58
14204;BME280;7185;51.854;6.622;2023-08-01T05:26:21;99496.78;;;20.49;86.26
14204;BME280;7185;51.854;6.622;2023-08-01T05:29:13;99492.19;;;20.40;85.95
14204;BME280;7185;51.854;6.622;2023-08-01T05:34:34;99499.97;;;20.18;86.82
14204;BME280;7185;51.854;6.622;2023-08-01T05:37:06;99498.22;;;20.42;85.99
14204;BME280;7185;51.854;6.622;2023-08-01T05:39:38;99506.19;;;20.42;85.98
14204;BME280;7185;51.854;6.622;2023-08-01T05:42:10;99500.84;;;20.30;86.27
14204;BME280;7185;51.854;6.622;2023-08-01T05:44:44;99509.78;;;20.18;87.18
14204;BME280;7185;51.854;6.622;2023-08-01T05:47:16;99501.34;;;20.24;86.67
14204;BME280;7185;51.854;6.622;2023-08-01T05:49:48;99510.34;;;20.57;85.72
14204;BME280;7185;51.854;6.622;2023-08-01T05:52:20;99512.47;;;20.29;86.89
14204;BME280;7185;51.854;6.622;2023-08-01T05:54:53;99501.38;;;20.47;86.58
14204;BME280;7185;51.854;6.622;2023-08-01T05:57:25;99502.63;;;20.77;85.13
14204;BME280;7185;51.854;6.622;2023-08-01T06:00:42;99513.97;;;20.45;85.59
14204;BME280;7185;51.854;6.622;2023-08-01T06:03:23;99515.91;;;20.54;85.35
14204;BME280;7185;51.854;6.622;2023-08-01T06:05:55;99519.47;;;20.77;85.04
14204;BME280;7185;51.854;6.622;2023-08-01T06:08:29;99520.34;;;20.89;85.34
14204;BME280;7185;51.854;6.622;2023-08-01T06:11:04;99527.81;;;20.73;85.17
14204;BME280;7185;51.854;6.622;2023-08-01T06:13:53;99513.06;;;20.80;85.35
14204;BME280;7185;51.854;6.622;2023-08-01T06:16:28;99525.63;;;20.66;85.44
14204;BME280;7185;51.854;6.622;2023-08-01T06:19:00;99522.91;;;20.55;85.88
14204;BME280;7185;51.854;6.622;2023-08-01T06:21:33;99517.00;;;20.63;85.38
14204;BME280;7185;51.854;6.622;2023-08-01T06:24:05;99517.06;;;20.97;85.02
14204;BME280;7185;51.854;6.622;2023-08-01T06:26:38;99521.03;;;20.91;85.09
14204;BME280;7185;51.854;6.622;2023-08-01T06:29:11;99531.16;;;20.52;85.25
14204;BME280;7185;51.854;6.622;2023-08-01T06:31:45;99524.03;;;20.64;85.42
14204;BME280;7185;51.854;6.622;2023-08-01T06:34:17;99531.38;;;20.37;85.18
14204;BME280;7185;51.854;6.622;2023-08-01T06:36:50;99529.59;;;20.49;85.28
14204;BME280;7185;51.854;6.622;2023-08-01T06:39:22;99539.63;;;20.46;85.14
14204;BME280;7185;51.854;6.622;2023-08-01T06:41:54;99534.34;;;20.68;85.14
14204;BME280;7185;51.854;6.622;2023-08-01T06:44:26;99530.69;;;20.69;84.83
14204;BME280;7185;51.854;6.622;2023-08-01T06:46:59;99531.00;;;20.89;84.20
14204;BME280;7185;51.854;6.622;2023-08-01T06:49:31;99529.28;;;20.88;83.79
14204;BME280;7185;51.854;6.622;2023-08-01T06:52:07;99531.34;;;20.96;83.79
14204;BME280;7185;51.854;6.622;2023-08-01T06:54:39;99526.13;;;21.17;83.08
14204;BME280;7185;51.854;6.622;2023-08-01T06:57:11;99532.91;;;20.98;82.52
14204;BME280;7185;51.854;6.622;2023-08-01T06:59:43;99521.66;;;20.95;82.37
14204;BME280;7185;51.854;6.622;2023-08-01T07:02:16;99522.22;;;21.44;82.24
14204;BME280;7185;51.854;6.622;2023-08-01T07:04:48;99528.53;;;21.31;82.01
14204;BME280;7185;51.854;6.622;2023-08-01T07:07:19;99524.91;;;21.21;82.12
14204;BME280;7185;51.854;6.622;2023-08-01T07:09:51;99532.69;;;21.24;82.36
14204;BME280;7185;51.854;6.622;2023-08-01T07:12:23;99533.91;;;20.75;83.13
14204;BME280;7185;51.854;6.622;2023-08-01T07:14:56;99524.31;;;20.95;81.93
14204;BME280;7185;51.854;6.622;2023-08-01T07:17:29;99531.72;;;21.02;80.76
14204;BME280;7185;51.854;6.622;2023-08-01T07:20:08;99537.50;;;21.19;80.17
14204;BME280;7185;51.854;6.622;2023-08-01T07:22:45;99533.88;;;21.31;81.33
14204;BME280;7185;51.854;6.622;2023-08-01T07:25:22;99527.56;;;21.21;81.40
14204;BME280;7185;51.854;6.622;2023-08-01T07:27:54;99533.66;;;21.23;81.61
14204;BME280;7185;51.854;6.622;2023-08-01T07:30:26;99519.19;;;21.37;79.84
14204;BME280;7185;51.854;6.622;2023-08-01T07:32:59;99525.88;;;21.31;80.25
14204;BME280;7185;51.854;6.622;2023-08-01T07:35:33;99530.97;;;21.12;79.92
14204;BME280;7185;51.854;6.622;2023-08-01T07:38:05;99531.41;;;21.40;80.30
14204;BME280;7185;51.854;6.622;2023-08-01T07:40:42;99530.78;;;22.03;78.84
14204;BME280;7185;51.854;6.622;2023-08-01T07:43:14;99533.34;;;21.72;78.77
14204;BME280;7185;51.854;6.622;2023-08-01T07:45:46;99536.09;;;22.03;77.65
14204;BME280;7185;51.854;6.622;2023-08-01T07:48:24;99529.63;;;22.38;76.61
14204;BME280;7185;51.854;6.622;2023-08-01T07:50:55;99536.09;;;22.03;76.47
14204;BME280;7185;51.854;6.622;2023-08-01T07:53:28;99549.06;;;22.07;76.81
14204;BME280;7185;51.854;6.622;2023-08-01T07:56:08;99546.53;;;22.06;76.25
14204;BME280;7185;51.854;6.622;2023-08-01T07:58:54;99537.91;;;22.35;76.74
14204;BME280;7185;51.854;6.622;2023-08-01T08:01:31;99535.56;;;22.41;76.96
14204;BME280;7185;51.854;6.622;2023-08-01T08:04:19;99547.63;;;21.71;77.10
14204;BME280;7185;51.854;6.622;2023-08-01T08:06:51;99553.91;;;22.13;76.03
14204;BME280;7185;51.854;6.622;2023-08-01T08:09:38;99551.91;;;22.27;75.76
14204;BME280;7185;51.854;6.622;2023-08-01T08:12:16;99546.16;;;22.32;75.54
14204;BME280;7185;51.854;6.622;2023-08-01T08:17:50;99560.63;;;21.30;76.44
14204;BME280;7185;51.854;6.622;2023-08-01T08:20:24;99557.13;;;21.96;76.02
14204;BME280;7185;51.854;6.622;2023-08-01T08:23:13;99554.63;;;22.16;75.96
14204;BME280;7185;51.854;6.622;2023-08-01T08:25:53;99559.66;;;22.30;75.26
14204;BME280;7185;51.854;6.622;2023-08-01T08:28:29;99559.66;;;21.54;76.79
14204;BME280;7185;51.854;6.622;2023-08-01T08:31:02;99559.97;;;21.83;77.38
14204;BME280;7185;51.854;6.622;2023-08-01T08:33:37;99550.84;;;21.86;77.09
14204;BME280;7185;51.854;6.622;2023-08-01T08:36:16;99554.00;;;22.23;75.89
14204;BME280;7185;51.854;6.622;2023-08-01T08:38:51;99554.03;;;21.79;75.48
14204;BME280;7185;51.854;6.622;2023-08-01T08:41:27;99544.66;;;22.50;76.69
14204;BME280;7185;51.854;6.622;2023-08-01T08:44:01;99547.03;;;22.32;73.96
14204;BME280;7185;51.854;6.622;2023-08-01T08:46:37;99553.66;;;22.80;74.56
14204;BME280;7185;51.854;6.622;2023-08-01T08:49:12;99553.13;;;22.55;72.52
14204;BME280;7185;51.854;6.622;2023-08-01T08:51:54;99548.66;;;22.87;71.65
14204;BME280;7185;51.854;6.622;2023-08-01T08:54:38;99553.50;;;23.34;70.55
14204;BME280;7185;51.854;6.622;2023-08-01T08:57:21;99542.94;;;23.01;69.39
14204;BME280;7185;51.854;6.622;2023-08-01T08:59:55;99551.59;;;22.41;69.13
14204;BME280;7185;51.854;6.622;2023-08-01T09:02:39;99573.56;;;22.45;71.11
14204;BME280;7185;51.854;6.622;2023-08-01T09:05:11;99555.78;;;22.02;74.72
14204;BME280;7185;51.854;6.622;2023-08-01T09:08:01;99556.22;;;22.60;77.69
14204;BME280;7185;51.854;6.622;2023-08-01T09:10:36;99551.72;;;23.13;75.72
14204;BME280;7185;51.854;6.622;2023-08-01T09:13:14;99562.56;;;23.52;74.28
14204;BME280;7185;51.854;6.622;2023-08-01T09:15:52;99565.41;;;23.70;72.43
14204;BME280;7185;51.854;6.622;2023-08-01T09:18:24;99569.56;;;23.13;73.65
14204;BME280;7185;51.854;6.622;2023-08-01T09:20:59;99566.09;;;22.27;75.00
14204;BME280;7185;51.854;6.622;2023-08-01T09:23:34;99568.94;;;22.47;76.29
14204;BME280;7185;51.854;6.622;2023-08-01T09:26:12;99586.13;;;22.01;76.89
14204;BME280;7185;51.854;6.622;2023-08-01T09:28:55;99581.63;;;21.46;76.41
14204;BME280;7185;51.854;6.622;2023-08-01T09:31:27;99584.38;;;22.11;76.03
14204;BME280;7185;51.854;6.622;2023-08-01T09:34:00;99583.31;;;22.35;76.15
14204;BME280;7185;51.854;6.622;2023-08-01T09:36:34;99585.03;;;22.78;75.78
14204;BME280;7185;51.854;6.622;2023-08-01T09:39:21;99584.88;;;23.32;74.98
14204;BME280;7185;51.854;6.622;2023-08-01T09:41:56;99584.91;;;24.02;73.81
14204;BME280;7185;51.854;6.622;2023-08-01T09:44:30;99585.72;;;24.61;72.56
14204;BME280;7185;51.854;6.622;2023-08-01T09:47:03;99592.28;;;24.19;68.94
14204;BME280;7185;51.854;6.622;2023-08-01T09:49:49;99581.53;;;24.49;66.55
14204;BME280;7185;51.854;6.622;2023-08-01T09:52:27;99578.56;;;24.72;69.18
14204;BME280;7185;51.854;6.622;2023-08-01T09:55:00;99580.56;;;25.07;69.19
14204;BME280;7185;51.854;6.622;2023-08-01T09:57:37;99590.97;;;24.43;64.65
14204;BME280;7185;51.854;6.622;2023-08-01T10:00:10;99597.03;;;24.45;67.34
14204;BME280;7185;51.854;6.622;2023-08-01T10:02:43;99583.31;;;24.88;66.59
14204;BME280;7185;51.854;6.622;2023-08-01T10:05:16;99588.88;;;24.27;65.94
14204;BME280;7185;51.854;6.622;2023-08-01T10:07:51;99591.53;;;24.37;66.60
14204;BME280;7185;51.854;6.622;2023-08-01T10:10:26;99575.06;;;23.93;66.57
14204;BME280;7185;51.854;6.622;2023-08-01T10:13:01;99579.56;;;24.02;66.72
14204;BME280;7185;51.854;6.622;2023-08-01T10:15:34;99574.69;;;23.57;68.96
14204;BME280;7185;51.854;6.622;2023-08-01T10:18:06;99581.88;;;23.76;68.72
14204;BME280;7185;51.854;6.622;2023-08-01T10:20:39;99592.16;;;23.61;70.02
14204;BME280;7185;51.854;6.622;2023-08-01T10:23:12;99578.06;;;23.68;68.88
14204;BME280;7185;51.854;6.622;2023-08-01T10:25:45;99587.31;;;23.35;68.67
14204;BME280;7185;51.854;6.622;2023-08-01T10:28:18;99581.78;;;23.77;69.02
14204;BME280;7185;51.854;6.622;2023-08-01T10:30:54;99587.44;;;24.03;69.99
14204;BME280;7185;51.854;6.622;2023-08-01T10:33:32;99584.09;;;24.11;68.33
14204;BME280;7185;51.854;6.622;2023-08-01T10:36:15;99576.78;;;25.00;69.68
14204;BME280;7185;51.854;6.622;2023-08-01T10:38:48;99576.00;;;25.18;68.05
14204;BME280;7185;51.854;6.622;2023-08-01T10:41:30;99581.69;;;25.70;65.96
14204;BME280;7185;51.854;6.622;2023-08-01T10:44:29;99570.41;;;25.67;65.24
14204;BME280;7185;51.854;6.622;2023-08-01T10:47:04;99577.53;;;25.58;65.07
14204;BME280;7185;51.854;6.622;2023-08-01T10:49:38;99573.63;;;25.70;64.11
14204;BME280;7185;51.854;6.622;2023-08-01T10:52:17;99568.44;;;25.87;64.63
14204;BME280;7185;51.854;6.622;2023-08-01T10:54:56;99576.03;;;25.73;64.32
14204;BME280;7185;51.854;6.622;2023-08-01T10:57:31;99577.31;;;25.51;64.30
14204;BME280;7185;51.854;6.622;2023-08-01T11:00:10;99595.47;;;24.53;62.03
14204;BME280;7185;51.854;6.622;2023-08-01T11:02:48;99608.88;;;24.72;62.75
14204;BME280;7185;51.854;6.622;2023-08-01T11:08:06;99610.88;;;24.11;65.96
14204;BME280;7185;51.854;6.622;2023-08-01T11:10:39;99612.97;;;24.86;65.58
14204;BME280;7185;51.854;6.622;2023-08-01T11:13:22;99612.13;;;24.66;65.03
14204;BME280;7185;51.854;6.622;2023-08-01T11:16:20;99614.53;;;24.79;65.02
14204;BME280;7185;51.854;6.622;2023-08-01T11:18:52;99612.66;;;25.27;64.62
14204;BME280;7185;51.854;6.622;2023-08-01T11:21:27;99603.22;;;25.60;63.14
14204;BME280;7185;51.854;6.622;2023-08-01T11:23:59;99602.94;;;26.09;62.48
14204;BME280;7185;51.854;6.622;2023-08-01T11:26:40;99609.94;;;25.47;62.15
14204;BME280;7185;51.854;6.622;2023-08-01T11:29:20;99609.25;;;25.44;62.83
14204;BME280;7185;51.854;6.622;2023-08-01T11:31:56;99608.75;;;26.05;62.08
14204;BME280;7185;51.854;6.622;2023-08-01T11:34:39;99632.59;;;25.62;58.10
14204;BME280;7185;51.854;6.622;2023-08-01T11:37:17;99613.31;;;25.49;57.51
14204;BME280;7185;51.854;6.622;2023-08-01T11:39:50;99620.94;;;25.99;56.94
14204;BME280;7185;51.854;6.622;2023-08-01T11:42:23;99620.16;;;25.89;55.41
14204;BME280;7185;51.854;6.622;2023-08-01T11:45:07;99623.88;;;25.60;53.05
14204;BME280;7185;51.854;6.622;2023-08-01T11:47:44;99628.91;;;25.63;53.46
14204;BME280;7185;51.854;6.622;2023-08-01T11:50:23;99642.72;;;24.63;59.36
14204;BME280;7185;51.854;6.622;2023-08-01T11:53:18;99648.91;;;24.64;60.45
14204;BME280;7185;51.854;6.622;2023-08-01T11:55:52;99651.47;;;24.56;61.66
14204;BME280;7185;51.854;6.622;2023-08-01T11:58:28;99652.72;;;24.12;60.98
14204;BME280;7185;51.854;6.622;2023-08-01T12:01:08;99645.72;;;24.70;60.99
14204;BME280;7185;51.854;6.622;2023-08-01T12:03:45;99644.28;;;24.46;59.66
14204;BME280;7185;51.854;6.622;2023-08-01T12:06:23;99645.34;;;25.60;57.95
14204;BME280;7185;51.854;6.622;2023-08-01T12:09:06;99633.47;;;26.81;57.64
14204;BME280;7185;51.854;6.622;2023-08-01T12:11:39;99650.97;;;26.85;53.71
14204;BME280;7185;51.854;6.622;2023-08-01T12:14:12;99638.50;;;25.93;51.52
14204;BME280;7185;51.854;6.622;2023-08-01T12:16:57;99647.75;;;25.81;52.60
14204;BME280;7185;51.854;6.622;2023-08-01T12:19:33;99647.56;;;25.65;53.89
14204;BME280;7185;51.854;6.622;2023-08-01T12:25:25;99641.19;;;26.39;48.65
14204;BME280;7185;51.854;6.622;2023-08-01T12:28:10;99653.50;;;26.68;50.74
14204;BME280;7185;51.854;6.622;2023-08-01T12:30:46;99651.91;;;26.21;47.98
14204;BME280;7185;51.854;6.622;2023-08-01T12:33:26;99656.19;;;26.68;48.69
14204;BME280;7185;51.854;6.622;2023-08-01T12:36:08;99667.63;;;26.88;48.66
14204;BME280;7185;51.854;6.622;2023-08-01T12:38:41;99652.28;;;26.81;48.42
14204;BME280;7185;51.854;6.622;2023-08-01T12:41:17;99670.38;;;27.23;47.70
14204;BME280;7185;51.854;6.622;2023-08-01T12:44:03;99651.38;;;27.25;48.40
14204;BME280;7185;51.854;6.622;2023-08-01T12:46:45;99653.72;;;26.93;48.53
14204;BME280;7185;51.854;6.622;2023-08-01T12:49:24;99658.50;;;26.63;49.04
14204;BME280;7185;51.854;6.622;2023-08-01T12:51:58;99657.13;;;27.30;48.85
14204;BME280;7185;51.854;6.622;2023-08-01T12:54:53;99655.25;;;27.22;48.64
14204;BME280;7185;51.854;6.622;2023-08-01T12:57:55;99648.66;;;26.54;48.35
14204;BME280;7185;51.854;6.622;2023-08-01T13:00:42;99657.88;;;26.51;48.79
14204;BME280;7185;51.854;6.622;2023-08-01T13:03:29;99659.72;;;26.15;49.50
14204;BME280;7185;51.854;6.622;2023-08-01T13:06:19;99655.47;;;25.66;51.42
14204;BME280;7185;51.854;6.622;2023-08-01T13:09:08;99654.16;;;25.98;51.59
14204;BME280;7185;51.854;6.622;2023-08-01T13:11:44;99653.66;;;26.31;50.50
14204;BME280;7185;51.854;6.622;2023-08-01T13:14:17;99663.72;;;26.11;51.73
14204;BME280;7185;51.854;6.622;2023-08-01T13:17:02;99663.34;;;26.60;51.21
14204;BME280;7185;51.854;6.622;2023-08-01T13:19:48;99679.25;;;25.61;50.22
14204;BME280;7185;51.854;6.622;2023-08-01T13:25:48;99674.16;;;25.58;51.90
14204;BME280;7185;51.854;6.622;2023-08-01T13:28:22;99680.94;;;25.05;50.61
14204;BME280;7185;51.854;6.622;2023-08-01T13:31:02;99677.72;;;24.81;50.75
14204;BME280;7185;51.854;6.622;2023-08-01T13:33:50;99690.41;;;24.40;51.53
14204;BME280;7185;51.854;6.622;2023-08-01T13:36:38;99702.50;;;24.44;54.60
14204;BME280;7185;51.854;6.622;2023-08-01T13:39:39;99701.69;;;24.63;56.39
14204;BME280;7185;51.854;6.622;2023-08-01T13:42:30;99705.00;;;24.07;59.82
14204;BME280;7185;51.854;6.622;2023-08-01T13:45:02;99707.88;;;24.44;61.13
14204;BME280;7185;51.854;6.622;2023-08-01T13:47:36;99719.09;;;23.99;59.39
14204;BME280;7185;51.854;6.622;2023-08-01T13:50:08;99719.91;;;23.99;60.79
14204;BME280;7185;51.854;6.622;2023-08-01T13:52:41;99707.34;;;24.00;59.93
14204;BME280;7185;51.854;6.622;2023-08-01T13:55:17;99712.06;;;24.08;59.40
14204;BME280;7185;51.854;6.622;2023-08-01T13:57:51;99713.09;;;24.46;58.79
14204;BME280;7185;51.854;6.622;2023-08-01T14:00:25;99712.97;;;24.47;56.02
14204;BME280;7185;51.854;6.622;2023-08-01T14:03:03;99714.63;;;24.29;53.77
14204;BME280;7185;51.854;6.622;2023-08-01T14:05:38;99725.28;;;23.99;52.23
14204;BME280;7185;51.854;6.622;2023-08-01T14:08:42;99713.84;;;24.67;51.62
14204;BME280;7185;51.854;6.622;2023-08-01T14:11:14;99728.19;;;24.57;51.33
14204;BME280;7185;51.854;6.622;2023-08-01T14:13:58;99737.47;;;24.33;51.69
14204;BME280;7185;51.854;6.622;2023-08-01T14:16:47;99723.56;;;25.08;51.79
14204;BME280;7185;51.854;6.622;2023-08-01T14:19:33;99727.38;;;24.66;51.95
14204;BME280;7185;51.854;6.622;2023-08-01T14:22:19;99745.97;;;24.58;51.71
14204;BME280;7185;51.854;6.622;2023-08-01T14:24:52;99736.19;;;24.37;51.88
14204;BME280;7185;51.854;6.622;2023-08-01T14:27:24;99732.59;;;24.07;53.17
14204;BME280;7185;51.854;6.622;2023-08-01T14:29:58;99740.00;;;24.25;53.50
14204;BME280;7185;51.854;6.622;2023-08-01T14:32:30;99728.56;;;24.23;54.17
14204;BME280;7185;51.854;6.622;2023-08-01T14:35:07;99726.19;;;24.19;54.41
14204;BME280;7185;51.854;6.622;2023-08-01T14:37:44;99729.94;;;24.77;54.19
14204;BME280;7185;51.854;6.622;2023-08-01T14:40:30;99732.16;;;25.21;53.79
14204;BME280;7185;51.854;6.622;2023-08-01T14:43:14;99727.91;;;25.28;53.08
14204;BME280;7185;51.854;6.622;2023-08-01T14:45:50;99734.16;;;24.70;53.60
14204;BME280;7185;51.854;6.622;2023-08-01T14:48:40;99735.84;;;24.81;53.96